Time;durP1;ratioP1;P1;durP2;ratioP2;P2;SDS_P1;SDS_P2;PMS_P1;PMS_P2;Temp;Humidity;BMP_temperature;BMP_pressure;BME280_temperature;BME280_humidity;BME280_pressure;Samples;Min_cycle;Max_cycle;Signal;HPM_P1;HPM_P2
2022/09/15 00:00:11;;;;;;;5.80;3.10;;;;;;;22.70;50.18;100217.25;4937995;29;20500;-78
2022/09/15 00:02:38;;;;;;;75.30;9.05;;;;;;;22.67;50.22;100212.19;4937807;29;20028;-78
2022/09/15 00:05:04;;;;;;;27.80;5.60;;;;;;;22.66;49.82;100209.66;4921057;29;20043;-80
2022/09/15 00:07:30;;;;;;;20.92;4.35;;;;;;;22.62;49.99;100209.22;4905830;29;20039;-81
2022/09/15 00:09:56;;;;;;;15.23;3.97;;;;;;;22.62;50.08;100202.91;4920736;29;20029;-80
2022/09/15 00:12:23;;;;;;;11.57;3.65;;;;;;;22.55;50.42;100213.03;4938447;29;20536;-80
2022/09/15 00:14:49;;;;;;;10.70;3.17;;;;;;;22.51;50.53;100198.03;4922087;29;20039;-80
2022/09/15 00:17:16;;;;;;;12.80;3.50;;;;;;;22.47;50.71;100211.34;4921468;29;20118;-79
2022/09/15 00:19:41;;;;;;;36.33;4.40;;;;;;;22.43;50.64;100223.78;4937666;29;20481;-79
2022/09/15 00:22:08;;;;;;;16.48;3.72;;;;;;;22.40;50.79;100220.63;4937733;29;20079;-78
2022/09/15 00:24:34;;;;;;;5.75;2.83;;;;;;;22.43;49.79;100226.53;4937199;29;20035;-76
2022/09/15 00:27:00;;;;;;;8.35;2.97;;;;;;;22.43;49.87;100221.03;4929982;29;20035;-80
2022/09/15 00:29:26;;;;;;;7.88;2.70;;;;;;;22.50;49.57;100227.38;4904935;29;20028;-78
2022/09/15 00:31:51;;;;;;;4.85;2.70;;;;;;;22.52;49.58;100222.50;4937184;29;20812;-77
2022/09/15 00:34:17;;;;;;;6.90;2.90;;;;;;;22.59;49.50;100215.13;4920093;29;20031;-77
2022/09/15 00:36:42;;;;;;;3.17;2.25;;;;;;;22.61;49.59;100207.53;4903249;29;20052;-77
2022/09/15 00:39:09;;;;;;;9.75;2.90;;;;;;;22.62;49.50;100203.75;4918117;29;20028;-78
2022/09/15 00:41:39;;;;;;;10.65;3.08;;;;;;;22.65;49.27;100197.88;4918238;29;20575;-78
2022/09/15 00:44:25;;;;;;;5.20;2.65;;;;;;;22.69;48.94;100193.63;4919398;29;20046;-78
2022/09/15 00:46:53;;;;;;;7.55;3.17;;;;;;;22.71;48.96;100197.03;4902574;29;20035;-79
2022/09/15 00:49:22;;;;;;;7.63;3.75;;;;;;;22.76;48.91;100205.44;4918787;29;20062;-78
2022/09/15 00:51:54;;;;;;;5.70;2.92;;;;;;;22.73;49.13;100200.38;4920910;29;20057;-78
2022/09/15 00:54:30;;;;;;;14.23;3.45;;;;;;;22.76;49.09;100183.50;4918552;29;20042;-78
2022/09/15 00:57:00;;;;;;;7.43;3.35;;;;;;;22.71;49.19;100186.06;4918481;29;20028;-79
2022/09/15 00:59:29;;;;;;;8.15;2.97;;;;;;;22.67;49.43;100193.00;4918762;29;20115;-80
2022/09/15 01:02:02;;;;;;;7.53;3.10;;;;;;;22.66;49.72;100194.06;4918900;29;20035;-80
2022/09/15 01:04:29;;;;;;;8.77;3.97;;;;;;;22.59;50.54;100182.25;4918247;29;20520;-80
2022/09/15 01:07:04;;;;;;;5.10;3.75;;;;;;;22.50;51.67;100178.03;4918984;29;20462;-82
2022/09/15 01:09:52;;;;;;;10.38;4.72;;;;;;;22.41;51.99;100167.50;4902636;29;20114;-83
2022/09/15 01:12:20;;;;;;;8.13;3.40;;;;;;;22.35;51.71;100150.03;4919348;29;20116;-81
2022/09/15 01:14:47;;;;;;;5.05;3.22;;;;;;;22.31;51.63;100148.75;4919290;29;20410;-83
2022/09/15 01:17:20;;;;;;;12.70;4.25;;;;;;;22.29;51.21;100153.63;4871568;29;20418;-85
2022/09/15 01:20:05;;;;;;;5.15;3.00;;;;;;;22.42;50.43;100163.69;4902412;29;20032;-83
2022/09/15 01:22:59;;;;;;;6.57;3.22;;;;;;;22.42;50.26;100152.72;4918718;29;20036;-83
2022/09/15 01:25:28;;;;;;;9.57;4.03;;;;;;;22.42;51.10;100153.56;4918932;29;20084;-83
2022/09/15 01:28:31;;;;;;;4.45;3.20;;;;;;;22.46;50.76;100154.00;4918810;29;20561;-84
2022/09/15 01:31:28;;;;;;;9.43;2.97;;;;;;;22.45;50.76;100150.41;4918331;29;20051;-80
2022/09/15 01:33:59;;;;;;;7.07;3.63;;;;;;;22.45;50.26;100153.16;4911951;29;20040;-83
2022/09/15 01:36:43;;;;;;;5.65;2.78;;;;;;;22.51;49.82;100141.34;4932198;29;20058;-79
2022/09/15 01:39:22;;;;;;;8.05;2.67;;;;;;;22.62;49.19;100145.34;4936997;29;20047;-80
2022/09/15 01:42:01;;;;;;;3.60;3.00;;;;;;;22.61;48.93;100147.22;4904496;29;20525;-81
2022/09/15 01:44:53;;;;;;;11.23;3.28;;;;;;;22.72;48.40;100153.97;4934904;29;20062;-81
2022/09/15 01:47:22;;;;;;;6.63;2.70;;;;;;;22.71;48.38;100147.66;4919442;29;20030;-82
2022/09/15 01:49:55;;;;;;;5.32;2.97;;;;;;;22.74;48.53;100144.50;4919371;29;20149;-79
2022/09/15 01:52:24;;;;;;;4.10;3.13;;;;;;;22.77;48.10;100141.31;4919176;29;20035;-79
2022/09/15 01:54:57;;;;;;;6.32;3.28;;;;;;;22.73;48.22;100137.31;4918906;29;20401;-80
2022/09/15 01:57:24;;;;;;;7.18;3.63;;;;;;;22.75;48.03;100137.94;4936063;29;20024;-79
2022/09/15 01:59:54;;;;;;;4.72;3.55;;;;;;;22.80;48.21;100145.53;4918830;29;20032;-80
2022/09/15 02:02:27;;;;;;;10.30;3.60;;;;;;;22.83;47.52;100134.13;4935635;29;20042;-79
2022/09/15 02:05:05;;;;;;;6.47;3.33;;;;;;;22.87;47.96;100138.13;4935758;29;20370;-79
2022/09/15 02:08:23;;;;;;;4.78;2.90;;;;;;;22.94;47.25;100135.34;4934711;29;20445;-79
2022/09/15 02:11:04;;;;;;;9.73;3.20;;;;;;;22.97;47.16;100140.38;4876544;29;20591;-80
2022/09/15 02:13:46;;;;;;;5.22;2.65;;;;;;;22.94;46.62;100125.22;4916530;29;20554;-79
2022/09/15 02:16:18;;;;;;;7.72;2.75;;;;;;;22.98;46.68;100126.47;4915487;29;20042;-79
2022/09/15 02:19:13;;;;;;;12.38;3.03;;;;;;;23.02;46.47;100115.91;4916794;29;20036;-79
2022/09/15 02:21:46;;;;;;;11.25;2.80;;;;;;;22.97;46.12;100102.00;4916163;29;20118;-79
2022/09/15 02:24:17;;;;;;;8.93;2.88;;;;;;;23.04;46.28;100114.63;4912549;29;20035;-80
2022/09/15 02:26:48;;;;;;;8.13;3.10;;;;;;;23.01;46.46;100114.22;4884100;29;20446;-79
2022/09/15 02:29:17;;;;;;;9.45;3.28;;;;;;;22.92;45.99;100099.06;4914288;29;20027;-79
2022/09/15 02:31:45;;;;;;;9.15;3.53;;;;;;;23.02;45.85;100121.41;4902567;29;20026;-79
2022/09/15 02:34:23;;;;;;;8.18;3.35;;;;;;;23.06;46.13;100125.38;4935452;29;20028;-79
2022/09/15 02:36:52;;;;;;;4.03;3.08;;;;;;;23.04;45.99;100111.03;4918271;29;20589;-78
2022/09/15 02:39:26;;;;;;;9.25;2.80;;;;;;;23.10;45.58;100121.97;4935668;29;20103;-78
2022/09/15 02:41:52;;;;;;;11.38;3.05;;;;;;;23.11;45.28;100120.09;4903218;29;20478;-79
2022/09/15 02:44:19;;;;;;;13.65;2.97;;;;;;;23.14;45.12;100119.66;4933399;29;20035;-79
2022/09/15 02:46:50;;;;;;;7.43;3.08;;;;;;;23.18;44.93;100126.38;4935224;29;20019;-79
2022/09/15 02:49:15;;;;;;;3.28;2.67;;;;;;;23.15;45.13;100119.41;4935282;29;20541;-79
2022/09/15 02:51:42;;;;;;;5.82;3.28;;;;;;;23.16;45.15;100117.53;4918179;29;20024;-79
2022/09/15 02:54:07;;;;;;;10.52;3.30;;;;;;;23.16;45.14;100118.38;4917911;29;20024;-79
2022/09/15 02:56:33;;;;;;;9.50;2.95;;;;;;;23.22;44.92;100128.47;4918233;29;20043;-79
2022/09/15 02:59:00;;;;;;;8.38;2.92;;;;;;;23.24;44.56;100126.34;4934773;29;20032;-79
2022/09/15 03:01:33;;;;;;;5.70;2.53;;;;;;;23.25;44.32;100133.53;4902653;29;20032;-79
2022/09/15 03:04:01;;;;;;;8.38;3.03;;;;;;;23.18;44.16;100126.38;4935057;29;20511;-79
2022/09/15 03:06:33;;;;;;;4.50;3.20;;;;;;;23.22;43.91;100128.47;4935017;29;20918;-79
2022/09/15 03:08:59;;;;;;;6.97;4.18;;;;;;;23.23;43.92;100130.16;4935199;29;20083;-79
2022/09/15 03:11:28;;;;;;;3.80;2.85;;;;;;;23.27;43.78;100138.81;4917536;29;20063;-79
2022/09/15 03:13:56;;;;;;;9.43;3.25;;;;;;;23.21;44.04;100136.91;4934852;29;20087;-78
2022/09/15 03:16:23;;;;;;;8.60;3.08;;;;;;;23.22;44.16;100142.19;4934588;29;20070;-78
2022/09/15 03:18:52;;;;;;;5.45;3.00;;;;;;;23.22;43.92;100142.19;4902161;29;20175;-78
2022/09/15 03:21:18;;;;;;;9.60;2.90;;;;;;;23.15;44.26;100124.91;4934612;29;20503;-78
2022/09/15 03:23:44;;;;;;;6.85;3.65;;;;;;;23.12;44.17;100133.56;4917218;29;20120;-78
2022/09/15 03:26:11;;;;;;;12.93;4.47;;;;;;;23.20;43.98;100135.25;4917138;29;20027;-79
2022/09/15 03:28:38;;;;;;;8.07;2.72;;;;;;;23.22;43.77;100138.59;4934780;29;20063;-79
2022/09/15 03:31:05;;;;;;;8.82;3.40;;;;;;;23.13;43.78;100123.44;4934804;29;20028;-79
2022/09/15 03:33:32;;;;;;;13.15;3.10;;;;;;;23.13;44.04;100128.94;4934131;29;20020;-79
2022/09/15 03:35:59;;;;;;;12.82;3.53;;;;;;;23.18;43.98;100137.34;4917657;29;20151;-79
2022/09/15 03:38:25;;;;;;;17.83;4.63;;;;;;;23.18;44.06;100140.09;4934316;29;20044;-79
2022/09/15 03:41:08;;;;;;;35.15;5.03;;;;;;;23.16;44.11;100128.50;4934204;29;20496;-78
2022/09/15 03:43:35;;;;;;;8.48;2.85;;;;;;;23.18;43.87;100131.84;4917342;29;20386;-78
2022/09/15 03:46:01;;;;;;;6.22;3.13;;;;;;;23.27;43.89;100152.53;4917310;29;20425;-78
2022/09/15 03:48:30;;;;;;;16.05;4.30;;;;;;;23.11;44.01;100120.09;4918328;29;20036;-83
2022/09/15 03:50:57;;;;;;;13.52;3.83;;;;;;;23.09;44.05;100124.94;4918121;29;20067;-83
2022/09/15 03:53:22;;;;;;;9.95;3.90;;;;;;;23.10;44.02;100116.50;4935582;29;20032;-82
2022/09/15 03:55:48;;;;;;;11.70;3.50;;;;;;;23.12;44.05;100114.38;4934936;29;20042;-83
2022/09/15 03:58:16;;;;;;;10.13;4.03;;;;;;;23.23;44.00;100134.81;4933460;29;20090;-82
2022/09/15 04:00:44;;;;;;;15.02;3.65;;;;;;;23.16;43.86;100123.84;4918348;29;20059;-79
2022/09/15 04:03:12;;;;;;;17.50;4.05;;;;;;;23.06;43.93;100128.97;4935078;29;20043;-81
2022/09/15 04:05:38;;;;;;;30.58;6.45;;;;;;;23.12;44.22;100135.47;4934386;29;20028;-79
2022/09/15 04:08:04;;;;;;;16.55;5.07;;;;;;;23.04;44.38;100142.06;4917544;29;20058;-80
2022/09/15 04:10:30;;;;;;;9.05;4.38;;;;;;;23.02;44.48;100138.69;4902424;29;20526;-81
2022/09/15 04:12:56;;;;;;;21.20;5.03;;;;;;;22.92;44.68;100126.50;4902465;29;20548;-81
2022/09/15 04:15:21;;;;;;;22.73;5.18;;;;;;;22.93;44.57;100123.56;4918862;29;20492;-83
2022/09/15 04:17:47;;;;;;;13.45;4.15;;;;;;;22.93;44.50;100106.25;4917650;29;20054;-80
2022/09/15 04:20:14;;;;;;;16.85;5.10;;;;;;;22.97;44.59;100118.44;4933733;29;20043;-80
2022/09/15 04:22:39;;;;;;;90.10;10.80;;;;;;;23.02;44.27;100116.75;4901460;29;20046;-80
2022/09/15 04:25:05;;;;;;;32.70;6.57;;;;;;;23.02;44.39;100113.16;4917696;29;20035;-82
2022/09/15 04:27:33;;;;;;;27.40;6.65;;;;;;;23.02;44.65;100110.44;4933638;29;20123;-87
2022/09/15 04:29:59;;;;;;;36.72;5.32;;;;;;;23.05;44.56;100115.47;4916844;29;20100;-82
2022/09/15 04:32:27;;;;;;;35.88;5.30;;;;;;;23.09;44.36;100111.22;4918110;29;20060;-86
2022/09/15 04:34:52;;;;;;;18.23;5.22;;;;;;;23.09;44.33;100112.06;4919636;29;20035;-86
2022/09/15 04:37:19;;;;;;;15.50;5.15;;;;;;;23.14;44.45;100125.13;4917647;29;20535;-89
2022/09/15 04:39:45;;;;;;;21.90;5.88;;;;;;;23.13;44.75;100123.44;4905927;29;20041;-89
2022/09/15 04:42:10;;;;;;;20.25;5.40;;;;;;;23.15;44.91;100121.31;4923389;29;20099;-92
2022/09/15 04:44:36;;;;;;;28.48;7.07;;;;;;;23.22;44.88;100130.38;4921801;29;20051;-83
2022/09/15 04:47:01;;;;;;;23.13;5.30;;;;;;;23.23;44.68;100115.59;4904459;29;20115;-85
2022/09/15 04:49:27;;;;;;;46.58;6.63;;;;;;;23.24;44.58;100130.97;4918786;29;20035;-78
2022/09/15 04:51:53;;;;;;;21.00;5.45;;;;;;;23.24;44.51;100120.00;4918581;29;20024;-79
2022/09/15 04:54:19;;;;;;;25.08;5.32;;;;;;;23.33;44.59;100135.19;4917967;29;20035;-84
2022/09/15 04:56:45;;;;;;;14.02;4.80;;;;;;;23.27;44.62;100119.59;4919203;29;20055;-81
2022/09/15 04:59:15;;;;;;;54.70;7.00;;;;;;;23.35;44.53;100127.56;4907456;29;20498;-82
2022/09/15 05:01:41;;;;;;;51.38;8.07;;;;;;;23.42;44.52;100133.03;4899667;29;20017;-81
2022/09/15 05:04:09;;;;;;;21.90;5.95;;;;;;;23.39;44.55;100117.00;4907784;29;20419;-78
2022/09/15 05:06:36;;;;;;;37.25;7.13;;;;;;;23.46;44.78;100129.63;4915966;29;20164;-78
2022/09/15 05:09:05;;;;;;;19.17;4.85;;;;;;;23.49;44.49;100129.19;4917417;29;20067;-77
2022/09/15 05:11:31;;;;;;;34.28;7.47;;;;;;;23.54;44.27;100126.63;4916175;29;20024;-79
2022/09/15 05:13:58;;;;;;;19.38;4.80;;;;;;;23.55;43.92;100122.81;4915642;29;20042;-78
2022/09/15 05:16:26;;;;;;;27.88;4.30;;;;;;;23.66;43.36;100133.09;4916693;29;20064;-77
2022/09/15 05:18:54;;;;;;;24.92;5.38;;;;;;;23.67;42.66;100128.44;4916099;29;20036;-77
2022/09/15 05:21:22;;;;;;;25.67;6.20;;;;;;;23.73;42.83;100142.13;4916948;29;20566;-78
2022/09/15 05:23:49;;;;;;;19.58;5.13;;;;;;;23.75;42.64;100140.00;4917121;29;20127;-77
2022/09/15 05:26:17;;;;;;;23.08;5.07;;;;;;;23.82;42.57;100140.78;4916458;29;20447;-76
2022/09/15 05:28:44;;;;;;;21.98;5.15;;;;;;;23.89;42.42;100134.41;4917026;29;20024;-79
2022/09/15 05:31:22;;;;;;;14.75;3.88;;;;;;;23.91;42.42;100146.03;4911939;29;20051;-78
2022/09/15 05:33:51;;;;;;;15.13;4.43;;;;;;;23.97;42.27;100147.88;4898212;29;20028;-79
2022/09/15 05:36:19;;;;;;;20.92;4.53;;;;;;;23.87;42.26;100133.78;4912484;29;20075;-79
2022/09/15 05:38:45;;;;;;;14.77;4.30;;;;;;;23.99;41.80;100145.75;4917245;29;20351;-79
2022/09/15 05:41:16;;;;;;;19.20;4.82;;;;;;;24.01;41.30;100133.44;4906591;29;20096;-78
2022/09/15 05:43:43;;;;;;;34.70;6.38;;;;;;;24.03;41.61;100133.25;4897017;29;20044;-77
2022/09/15 05:46:09;;;;;;;22.48;7.07;;;;;;;24.10;41.32;100136.75;4900799;29;20119;-78
2022/09/15 05:48:35;;;;;;;7.70;3.90;;;;;;;24.15;41.53;100128.75;4915628;29;20127;-78
2022/09/15 05:51:02;;;;;;;16.33;3.58;;;;;;;24.17;41.43;100134.84;4915502;29;20115;-78
2022/09/15 05:53:28;;;;;;;8.50;3.42;;;;;;;24.22;40.92;100132.25;4902405;29;20111;-82
2022/09/15 05:55:55;;;;;;;8.73;3.42;;;;;;;;;;4896945;29;20059;-78
2022/09/15 05:58:21;;;;;;;10.80;3.30;;;;;;;24.30;40.78;100140.22;4902181;29;20488;-79
2022/09/15 06:00:46;;;;;;;15.32;3.95;;;;;;;24.29;40.78;100130.28;4904315;29;20119;-79
2022/09/15 06:03:14;;;;;;;12.98;3.75;;;;;;;24.40;40.77;100136.97;4896263;29;20486;-80
2022/09/15 06:05:40;;;;;;;18.30;4.25;;;;;;;24.41;40.47;100133.97;4897097;29;20082;-79
2022/09/15 06:08:08;;;;;;;24.88;4.55;;;;;;;24.49;40.31;100141.94;4896392;29;20479;-79
2022/09/15 06:10:35;;;;;;;15.30;4.10;;;;;;;24.50;40.69;100140.84;4865304;29;20040;-79
2022/09/15 06:13:01;;;;;;;15.10;4.00;;;;;;;24.48;40.47;100132.00;4880978;29;20434;-79
2022/09/15 06:15:27;;;;;;;24.75;4.80;;;;;;;24.57;40.44;100127.88;4896081;29;20107;-79
2022/09/15 06:17:54;;;;;;;19.33;5.25;;;;;;;24.62;40.35;100136.28;4897517;29;20513;-79
2022/09/15 06:20:20;;;;;;;20.77;5.20;;;;;;;24.69;40.57;100131.56;4881377;29;20123;-79
2022/09/15 06:22:46;;;;;;;22.88;4.50;;;;;;;24.74;40.65;100128.13;4881122;29;20115;-79
2022/09/15 06:25:12;;;;;;;19.67;4.75;;;;;;;24.79;40.42;100126.38;4896117;29;20036;-79
2022/09/15 06:27:41;;;;;;;18.95;4.68;;;;;;;24.85;40.44;100124.66;4896422;29;20052;-80
2022/09/15 06:30:09;;;;;;;22.58;5.88;;;;;;;24.87;40.42;100117.00;4897352;29;20427;-79
2022/09/15 06:32:36;;;;;;;22.13;4.30;;;;;;;25.00;40.02;100122.34;4903739;29;20088;-80
2022/09/15 06:35:05;;;;;;;21.65;5.80;;;;;;;25.02;40.36;100127.59;4904554;29;20025;-79
2022/09/15 06:37:32;;;;;;;22.85;5.13;;;;;;;25.08;40.25;100129.44;4898092;29;20044;-78
2022/09/15 06:39:58;;;;;;;38.22;5.85;;;;;;;25.16;39.91;100126.38;4899272;29;20051;-78
2022/09/15 06:42:24;;;;;;;24.13;5.57;;;;;;;25.15;39.82;100130.19;4922851;29;20035;-80
2022/09/15 06:44:50;;;;;;;25.83;6.28;;;;;;;25.27;39.69;100122.84;4918320;29;20124;-77
2022/09/15 06:47:15;;;;;;;30.77;7.28;;;;;;;25.31;39.69;100124.06;4915727;29;20602;-77
2022/09/15 06:49:41;;;;;;;11.07;5.30;;;;;;;25.40;39.69;100126.25;4915844;29;20063;-77
2022/09/15 06:52:08;;;;;;;25.60;6.68;;;;;;;25.42;39.96;100132.38;4898989;29;20028;-78
2022/09/15 06:54:33;;;;;;;15.00;6.22;;;;;;;25.48;39.97;100125.06;4899466;29;20039;-77
2022/09/15 06:57:00;;;;;;;38.40;8.50;;;;;;;25.57;39.89;100134.72;4915879;29;20512;-77
2022/09/15 06:59:26;;;;;;;25.45;6.90;;;;;;;25.68;39.89;100133.09;4898214;29;20357;-77
2022/09/15 07:01:54;;;;;;;22.73;5.05;;;;;;;25.73;39.05;100125.78;4898440;29;20044;-78
2022/09/15 07:04:22;;;;;;;18.02;5.50;;;;;;;25.77;39.26;100116.00;4915559;29;20092;-78
2022/09/15 07:06:47;;;;;;;20.25;5.78;;;;;;;25.86;39.00;100131.09;4899246;29;20498;-77
2022/09/15 07:09:13;;;;;;;32.90;4.60;;;;;;;25.98;38.68;100126.47;4915354;29;20032;-77
2022/09/15 07:11:39;;;;;;;17.98;4.93;;;;;;;26.09;38.53;100118.41;4914364;29;20649;-77
2022/09/15 07:14:05;;;;;;;16.35;5.63;;;;;;;26.10;38.84;100101.66;4898247;29;20036;-77
2022/09/15 07:16:32;;;;;;;26.90;7.55;;;;;;;26.21;38.37;100102.75;4898828;29;20427;-76
2022/09/15 07:19:02;;;;;;;27.60;6.32;;;;;;;26.34;37.20;100102.53;4913881;29;20123;-78
2022/09/15 07:21:29;;;;;;;20.10;5.38;;;;;;;26.37;37.27;100097.38;4898296;29;20047;-77
2022/09/15 07:23:58;;;;;;;27.35;5.43;;;;;;;26.45;37.41;100094.25;4898904;29;20043;-76
2022/09/15 07:26:29;;;;;;;14.50;4.93;;;;;;;26.51;37.29;100086.94;4915193;29;20031;-78
2022/09/15 07:29:02;;;;;;;31.08;5.70;;;;;;;26.63;37.08;100079.50;4914993;29;20031;-78
2022/09/15 07:31:29;;;;;;;;;;;;;;;26.76;37.35;100081.97;4915454;29;20035;-76
2022/09/15 07:33:55;;;;;;;21.40;4.50;;;;;;;26.83;37.18;100079.94;4898191;29;19917;-76
2022/09/15 07:36:20;;;;;;;23.10;4.50;;;;;;;26.98;36.94;100084.94;4924473;29;20052;-76
2022/09/15 07:38:48;;;;;;;11.52;3.90;;;;;;;27.01;36.91;100079.78;4933688;29;20118;-76
2022/09/15 07:41:17;;;;;;;26.50;5.30;;;;;;;27.23;36.47;100090.13;4901203;29;20039;-76
2022/09/15 07:43:54;;;;;;;16.55;5.00;;;;;;;27.35;36.56;100093.69;4933997;29;20063;-77
2022/09/15 07:46:21;;;;;;;15.35;4.10;;;;;;;27.49;36.73;100086.81;4930791;29;20044;-77
2022/09/15 07:48:50;;;;;;;21.25;4.22;;;;;;;27.61;36.97;100078.47;4933703;29;20032;-76
2022/09/15 07:51:17;;;;;;;18.98;4.40;;;;;;;27.75;36.25;100072.34;4916704;29;20032;-77
2022/09/15 07:53:47;;;;;;;27.27;4.55;;;;;;;27.94;35.77;100081.25;4933367;29;20039;-77
2022/09/15 07:56:16;;;;;;;17.98;3.75;;;;;;;28.08;36.21;100072.38;4916478;29;20050;-78
2022/09/15 07:58:42;;;;;;;11.50;3.55;;;;;;;28.19;36.29;100072.56;4916348;29;20097;-76
2022/09/15 08:01:10;;;;;;;13.27;3.92;;;;;;;28.27;35.72;100070.19;4916138;29;20031;-77
2022/09/15 08:03:45;;;;;;;19.20;5.28;;;;;;;28.39;35.17;100073.69;4901363;29;20107;-76
2022/09/15 08:06:12;;;;;;;19.13;4.97;;;;;;;28.49;35.05;100076.63;4933570;29;20038;-77
2022/09/15 08:08:38;;;;;;;15.00;4.15;;;;;;;28.60;34.52;100072.03;4915936;29;20044;-77
2022/09/15 08:11:08;;;;;;;15.38;3.60;;;;;;;28.73;34.31;100080.00;4933117;29;20034;-77
2022/09/15 08:13:35;;;;;;;25.23;5.40;;;;;;;28.82;34.04;100072.94;4919801;29;20034;-77
2022/09/15 08:16:09;;;;;;;12.23;3.20;;;;;;;28.91;33.84;100065.84;4937657;29;20145;-77
2022/09/15 08:18:35;;;;;;;10.05;2.95;;;;;;;29.02;33.91;100077.91;4917591;29;20038;-77
2022/09/15 08:21:06;;;;;;;10.77;3.90;;;;;;;29.08;33.99;100074.91;4920355;29;20031;-77
2022/09/15 08:23:33;;;;;;;15.25;3.65;;;;;;;29.13;33.87;100063.91;4937403;29;20119;-77
2022/09/15 08:26:00;;;;;;;10.45;3.90;;;;;;;29.24;33.82;100072.34;4937576;29;20040;-77
2022/09/15 08:28:26;;;;;;;12.95;3.55;;;;;;;29.34;34.02;100064.13;4937369;29;20024;-77
2022/09/15 08:31:04;;;;;;;8.40;2.72;;;;;;;29.48;33.82;100051.56;4936996;29;20171;-77
2022/09/15 08:33:30;;;;;;;10.95;3.97;;;;;;;29.61;33.79;100045.56;4905106;29;20066;-78
2022/09/15 08:36:02;;;;;;;21.48;3.72;;;;;;;29.69;33.58;100050.66;4936900;29;20464;-77
2022/09/15 08:38:29;;;;;;;15.27;5.00;;;;;;;29.81;33.63;100054.06;4936566;29;20098;-77
2022/09/15 08:41:10;;;;;;;10.63;4.30;;;;;;;29.91;33.71;100047.78;4936935;29;20024;-78
2022/09/15 08:43:56;;;;;;;13.30;4.13;;;;;;;30.01;33.64;100039.53;4920389;29;20497;-78
2022/09/15 08:46:36;;;;;;;9.48;3.30;;;;;;;30.17;33.37;100052.44;4919885;29;20091;-78
2022/09/15 08:49:13;;;;;;;9.80;3.10;;;;;;;30.21;33.11;100057.16;4919717;29;20031;-78
2022/09/15 08:51:46;;;;;;;13.18;3.17;;;;;;;30.28;33.12;100054.16;4919681;29;20401;-77
2022/09/15 08:54:27;;;;;;;8.48;3.42;;;;;;;30.39;33.18;100055.94;4936666;29;20031;-77
2022/09/15 08:56:56;;;;;;;16.73;3.70;;;;;;;30.50;33.27;100046.56;4937707;29;20452;-78
2022/09/15 08:59:30;;;;;;;13.98;2.92;;;;;;;30.60;33.28;100040.22;4920680;29;20057;-80
2022/09/15 09:02:11;;;;;;;6.10;2.63;;;;;;;30.71;33.01;100045.56;4904855;29;20059;-81
2022/09/15 09:05:06;;;;;;;11.50;3.55;;;;;;;30.81;33.02;100043.94;4920005;29;20039;-80
2022/09/15 09:07:59;;;;;;;17.08;3.88;;;;;;;30.92;32.79;100042.84;4919695;29;20063;-79
2022/09/15 09:10:31;;;;;;;11.98;2.50;;;;;;;31.01;32.94;100036.53;4920276;29;20027;-79
2022/09/15 09:13:03;;;;;;;10.82;2.45;;;;;;;31.05;33.22;100025.72;4919562;29;20032;-80
2022/09/15 09:15:31;;;;;;;10.65;3.58;;;;;;;31.22;32.92;100027.13;4919626;29;20071;-79
2022/09/15 09:18:32;;;;;;;13.35;3.33;;;;;;;31.39;32.52;100020.50;4919364;29;20039;-77
2022/09/15 09:21:30;;;;;;;32.53;2.63;;;;;;;31.55;31.68;99997.22;4919271;29;20518;-80
2022/09/15 09:24:12;;;;;;;34.38;3.03;;;;;;;31.71;31.67;100005.25;4918932;29;20516;-83
2022/09/15 09:26:39;;;;;;;17.02;3.67;;;;;;;31.85;31.33;100008.31;4942839;29;20024;-82
2022/09/15 09:29:25;;;;;;;27.75;3.33;;;;;;;31.98;30.91;99999.41;4936781;29;20031;-77
2022/09/15 09:31:54;;;;;;;15.80;3.03;;;;;;;32.17;30.47;100011.63;4936314;29;20019;-78
2022/09/15 09:34:43;;;;;;;12.88;2.72;;;;;;;32.29;30.08;100011.34;4937077;29;20572;-79
2022/09/15 09:37:14;;;;;;;10.52;2.47;;;;;;;32.33;30.04;99999.34;4937571;29;20059;-82
2022/09/15 09:39:40;;;;;;;29.08;3.08;;;;;;;32.46;30.06;100008.22;4937022;29;20119;-80
2022/09/15 09:42:13;;;;;;;14.07;2.42;;;;;;;32.53;30.06;99992.06;4920143;29;20064;-80
2022/09/15 09:44:40;;;;;;;14.68;2.88;;;;;;;32.68;29.85;100011.53;4919902;29;20394;-80
2022/09/15 09:47:06;;;;;;;16.27;2.50;;;;;;;32.72;29.95;100005.06;4934790;29;20032;-78
2022/09/15 09:49:48;;;;;;;12.27;2.42;;;;;;;32.81;29.97;100006.16;4935932;29;20027;-79
2022/09/15 09:52:35;;;;;;;21.38;2.88;;;;;;;32.82;29.66;99985.53;4937946;29;20024;-78
2022/09/15 09:55:20;;;;;;;23.95;4.13;;;;;;;32.99;29.70;99996.31;4904265;29;20103;-79
2022/09/15 09:57:46;;;;;;;11.27;3.40;;;;;;;33.09;29.34;99992.69;4920758;29;20038;-78
2022/09/15 10:00:35;;;;;;;15.02;2.92;;;;;;;33.20;29.29;99991.47;4935511;29;20031;-78
2022/09/15 10:03:13;;;;;;;32.85;3.50;;;;;;;33.31;29.00;99993.91;4891950;29;20494;-80
2022/09/15 10:05:39;;;;;;;29.40;3.33;;;;;;;33.41;28.95;99993.00;4916827;29;20095;-82
2022/09/15 10:08:04;;;;;;;36.40;5.53;;;;;;;33.46;28.96;99986.53;4917157;29;20475;-80
2022/09/15 10:10:31;;;;;;;18.50;4.05;;;;;;;33.54;28.73;99991.50;4916593;29;20028;-80
2022/09/15 10:12:58;;;;;;;23.75;3.33;;;;;;;33.62;28.63;99977.81;4918778;29;20079;-78
2022/09/15 10:15:27;;;;;;;28.40;4.25;;;;;;;33.64;28.46;99966.38;4935486;29;20112;-77
2022/09/15 10:17:54;;;;;;;24.17;3.85;;;;;;;33.72;28.35;99982.47;4935362;29;20525;-79
2022/09/15 10:20:27;;;;;;;25.67;4.03;;;;;;;33.81;28.46;99980.69;4935211;29;20035;-80
2022/09/15 10:23:05;;;;;;;25.38;3.38;;;;;;;33.92;28.21;99965.50;4918886;29;20063;-78
2022/09/15 10:25:34;;;;;;;12.82;3.55;;;;;;;34.02;28.38;99979.38;4914392;29;20413;-82
2022/09/15 10:28:16;;;;;;;26.65;4.00;;;;;;;34.16;28.00;99971.19;4902736;29;20099;-77
2022/09/15 10:31:00;;;;;;;;;;;;;;;34.27;27.76;99979.16;4935733;29;20063;-76
2022/09/15 10:33:28;;;;;;;16.67;3.28;;;;;;;34.28;27.76;99980.78;4935029;29;19910;-78
2022/09/15 10:36:02;;;;;;;21.30;3.80;;;;;;;34.38;27.61;99966.72;4916638;29;20437;-82
2022/09/15 10:38:53;;;;;;;33.38;4.90;;;;;;;34.44;27.38;99973.91;4907752;29;20130;-79
2022/09/15 10:41:28;;;;;;;22.83;4.13;;;;;;;34.54;27.42;99964.56;4918704;29;20028;-77
2022/09/15 10:44:18;;;;;;;18.92;3.97;;;;;;;34.57;27.31;99960.34;4933725;29;20450;-77
2022/09/15 10:46:54;;;;;;;29.50;4.25;;;;;;;34.67;27.32;99960.25;4916654;29;20048;-78
2022/09/15 10:49:47;;;;;;;19.42;3.33;;;;;;;34.76;27.03;99953.69;4933693;29;20031;-81
2022/09/15 10:52:25;;;;;;;;;;;;;;;34.86;27.08;99963.91;4935536;29;20489;-82
2022/09/15 10:55:19;;;;;;;18.02;4.95;;;;;;;34.94;26.95;99952.03;4939357;29;19910;-86
2022/09/15 10:58:13;;;;;;;26.90;4.90;;;;;;;35.06;26.90;99946.81;4937823;29;20031;-86
2022/09/15 11:00:53;;;;;;;30.42;5.35;;;;;;;35.14;26.89;99954.56;4920878;29;20024;-85
2022/09/15 11:03:45;;;;;;;25.30;4.75;;;;;;;35.30;26.59;99930.81;4919994;29;20032;-89
2022/09/15 11:06:16;;;;;;;31.58;5.47;;;;;;;35.34;26.06;99940.25;4920039;29;20036;-83
2022/09/15 11:09:05;;;;;;;22.48;4.30;;;;;;;35.39;26.24;99933.75;4918994;29;20032;-84
2022/09/15 11:11:55;;;;;;;20.30;4.45;;;;;;;35.39;25.68;99898.22;4893453;29;20038;-89
2022/09/15 11:14:38;;;;;;;18.85;4.05;;;;;;;35.59;25.86;99911.06;4920451;29;20023;-86
2022/09/15 11:17:28;;;;;;;24.02;4.10;;;;;;;35.70;25.71;99920.91;4937524;29;20031;-88
2022/09/15 11:20:21;;;;;;;21.83;4.13;;;;;;;35.82;25.78;99917.63;4940980;29;20446;-96
2022/09/15 11:22:58;;;;;;;41.05;5.60;;;;;;;35.75;25.24;99886.44;4922630;29;20035;-88
2022/09/15 11:25:31;;;;;;;26.80;4.97;;;;;;;35.96;25.29;99907.28;4904844;29;20032;-84
2022/09/15 11:28:14;;;;;;;45.47;6.93;;;;;;;36.01;24.85;99898.78;4936439;29;20525;-86
2022/09/15 11:31:15;;;;;;;32.65;6.63;;;;;;;35.97;24.89;99883.72;4919236;29;20548;-85
2022/09/15 11:34:13;;;;;;;46.42;5.28;;;;;;;36.20;24.43;99905.16;4909384;29;20520;-86
2022/09/15 11:36:52;;;;;;;35.72;5.90;;;;;;;36.28;24.29;99910.00;4924846;29;20521;-87
2022/09/15 11:39:23;;;;;;;43.80;5.60;;;;;;;36.38;24.59;99908.97;4900706;29;20029;-83
2022/09/15 11:42:06;;;;;;;21.90;5.60;;;;;;;36.35;24.29;99896.41;4899715;29;20032;-84